Valley Peak, Santa Cruz Island Reserve, California Weather observations

Data are for 10 minute period ending at time listed.
 Day   Time   Solar   Ave.   Ave.  Ave.  Vector  Max.   Baro.   Total    
  of    of     Rad.   Air    Rel.  Wind   Wind   Wind  Press.  Precip.   
Year   Day            Temp.  Hum.  Speed  Dir.   Gust                    
2015   (PST)  Kw/m2    F      %     mph   deg.    mph    mb.     in.     
-------------------------------------------------------------------------
  60   11:50   0.77   61.3    63    4.8   121    11.2   963.4    0.00 
  60   12:00   0.78   61.4    64    6.3   130    14.2   963.2    0.00 
  60   12:10   0.85   61.0    66    5.0   129    12.3   963.1    0.00 
  60   12:20   0.87   61.5    65    6.9   136    15.6   963.0    0.00 
  60   12:30   0.88   62.3    63    4.6   136    12.0   962.9    0.00 
  60   12:40   0.78   61.5    64    5.1   148    10.7   962.8    0.00 
  60   12:50   0.79   62.8    62    4.1   136    11.5   962.8    0.00 
  60   13:00   0.72   61.2    65    6.1   145    13.2   962.7    0.00 
  60   13:10   0.82   61.7    64    5.6   150    12.6   962.5    0.00 
  60   13:20   0.70   62.6    61    5.8   147    12.7   962.4    0.00 
  60   13:30   0.60   60.6    65    5.5   151    14.0   962.3    0.00 
  60   13:40   0.61   59.1    67    5.4   149    11.5   962.3    0.00 
  60   13:50   0.71   61.1    63    6.9   158    14.0   962.2    0.00 
  60   14:00   0.70   61.9    62    7.4   159    14.5   962.1    0.00 
  60   14:10   0.70   61.7    62    8.1   160    14.5   962.1    0.00 
  60   14:20   0.68   61.0    63    7.5   180    13.6   962.1    0.00 
  60   14:30   0.63   60.1    63    8.1   177    12.7   962.2    0.00 
  60   14:40   0.63   59.7    60    8.5   173    12.3   962.3    0.00 
  60   14:50   0.44   59.7    60    7.9   172    12.4   962.3    0.00 
  60   15:00   0.44   58.6    61    8.9   171    14.0   962.2    0.00 
  60   15:10   0.47   58.9    63    9.4   168    14.0   962.3    0.00 
  60   15:20   0.41   58.4    64    8.9   178    13.8   962.3    0.00 
  60   15:30   0.45   59.5    59    8.6   170    14.6   962.3    0.00 
  60   15:40   0.41   57.7    58   10.5   189    15.4   962.3    0.00 
  60   15:50   0.37   58.8    58    8.8   189    15.3   962.3    0.00 
  60   16:00   0.33   57.1    60    9.9   191    15.6   962.4    0.00 
  60   16:10   0.29   57.0    64    9.2   184    13.4   962.5    0.00 
  60   16:20   0.27   57.7    64    7.5   179    13.7   962.5    0.00 
  60   16:30   0.25   58.2    64    6.2   184    10.2   962.5    0.00 
  60   16:40   0.20   58.9    62    5.8   186     9.1   962.5    0.00 
  60   16:50   0.17   57.4    65    6.1   216     9.8   962.4    0.00 
  60   17:00   0.14   56.1    66    6.8   214     9.9   962.4    0.00 
  60   17:10   0.10   55.6    66    6.8   210     9.9   962.5    0.00 
  60   17:20   0.08   55.8    66    4.9   180     8.8   962.6    0.00 
  60   17:30   0.05   57.6    63    2.1    99     4.2   962.7    0.00 
  60   17:40   0.03   55.8    67    1.2    20     3.3   962.9    0.00 
  60   17:50   0.01   52.2    74    4.6    25     7.9   962.9    0.00 
  60   18:00   0.00   49.0    81    6.8    20     9.7   962.9    0.00 
  60   18:10   0.00   48.2    85    7.1    16     9.1   963.0    0.00 
  60   18:20   0.00   47.7    88    7.0    20     9.6   963.1    0.00 
  60   18:30   0.00   47.4    90    6.8    16    11.8   963.2    0.00 
  60   18:40   0.00   47.7    90    8.0   357    11.8   963.2    0.00 
  60   18:50   0.00   47.5    90    8.3   359    10.8   963.3    0.00 
  60   19:00   0.00   47.6    89    8.4     4    11.2   963.5    0.00 
  60   19:10   0.00   47.6    88    8.1   351    11.0   963.5    0.00 
  60   19:20   0.00   47.4    88    7.1     6     9.0   963.5    0.00 
  60   19:30   0.00   47.6    87    8.1     4    10.5   963.6    0.00 
  60   19:40   0.00   47.6    86    7.5     9     9.1   963.6    0.00 
  60   19:50   0.00   47.5    85    8.1     0     9.1   963.6    0.00 
  60   20:00   0.00   47.6    85    7.0     8     8.8   963.7    0.00 
  60   20:10   0.00   47.6    85    7.2     8    10.4   963.8    0.00 
  60   20:20   0.00   47.5    86    8.3     5    10.7   963.7    0.00 
  60   20:30   0.00   47.4    87    8.2     5    10.5   963.7    0.00 
  60   20:40   0.00   47.5    87   10.3    12    13.4   963.7    0.00 
  60   20:50   0.00   47.1    90    8.7    13    11.2   963.8    0.00 
  60   21:00   0.00   46.8    93   10.3    30    11.7   964.0    0.00 
  60   21:10   0.00   46.5    95    9.6    36    11.2   964.0    0.00 
  60   21:20   0.00   46.4    95    8.7    34    11.3   964.0    0.00 
  60   21:30   0.00   46.3    94    8.5    35    10.6   964.0    0.00 
  60   21:40   0.00   46.3    92   10.3    34    12.3   964.0    0.00 
  60   21:50   0.00   46.2    92   10.8    34    12.9   963.9    0.00 
  60   22:00   0.00   46.0    91    9.7    32    11.8   964.0    0.00 
  60   22:10   0.00   46.2    88    9.5    37    11.2   964.0    0.00 
  60   22:20   0.00   46.1    88    9.0    36    10.4   963.9    0.00 
  60   22:30   0.00   46.2    87    9.4    33    11.1   963.9    0.00 
  60   22:40   0.00   46.4    88    9.5    31    10.7   963.8    0.00 
  60   22:50   0.00   46.2    86    8.7    33    10.7   963.7    0.00 
  60   23:00   0.00   46.3    84    9.8    31    12.3   963.6    0.00 
  60   23:10   0.00   46.3    85    9.6    27    11.0   963.5    0.00 
  60   23:20   0.00   46.2    88   10.5    24    12.3   963.5    0.00 
  60   23:30   0.00   46.1    90   10.1    26    12.4   963.5    0.00 
  60   23:40   0.00   46.0    92   10.1    20    11.5   963.5    0.00 
  60   23:50   0.00   45.9    93   10.2    19    11.5   963.5    0.00 
  61    0:00   0.00   45.9    94    8.6    26    10.1   963.5    0.00 
  61    0:10   0.00   45.8    94    8.3    26     9.7   963.3    0.00 
  61    0:20   0.00   45.7    93    7.6    26     9.0   963.3    0.00 
  61    0:30   0.00   45.4    92    4.9    30     6.7   963.3    0.00 
  61    0:40   0.00   45.0    93    2.0    52     3.3   963.2    0.00 
  61    0:50   0.00   44.7    94    2.8    65     3.5   963.1    0.00 
  61    1:00   0.00   44.5    92    1.6   118     2.7   963.0    0.00 
  61    1:10   0.00   45.3    88    2.3   164     2.9   963.0    0.00 
  61    1:20   0.00   46.2    84    2.5   193     2.9   962.9    0.00 
  61    1:30   0.00   46.5    84    2.4   200     2.9   962.9    0.00 
  61    1:40   0.00   46.5    83    2.0   204     2.6   962.9    0.00 
  61    1:50   0.00   46.6    82    2.3   210     2.9   962.8    0.00 
  61    2:00   0.00   46.8    78    2.7   199     3.1   962.7    0.00 
  61    2:10   0.00   47.1    76    3.1   211     3.7   962.7    0.00 
  61    2:20   0.00   46.9    78    1.9   207     2.6   962.6    0.00 
  61    2:30   0.00   47.0    77    1.5   234     2.0   962.5    0.00 
  61    2:40   0.00   46.9    78    1.6   239     2.3   962.3    0.00 
  61    2:50   0.00   46.9    78    3.4   229     4.6   962.2    0.00 
  61    3:00   0.00   46.5    78    5.1   232     5.8   962.1    0.00 
  61    3:10   0.00   46.4    79    5.6   228     6.7   962.0    0.00 
  61    3:20   0.00   46.1    81    6.7   239     7.2   962.0    0.00 
  61    3:30   0.00   45.7    84    7.0   251     7.5   961.9    0.00 
  61    3:40   0.00   45.8    86    8.7   248     9.9   961.9    0.00 
  61    3:50   0.00   45.7    88    7.9   252     9.3   961.8    0.00 
  61    4:00   0.00   45.8    89    7.8   260     8.8   961.9    0.00 
  61    4:10   0.00   45.9    90    6.2   260     7.3   961.8    0.00 
  61    4:20   0.00   45.8    89    5.7   296     7.1   961.8    0.00 
  61    4:30   0.00   45.8    87    5.4   312     7.7   961.9    0.00 
  61    4:40   0.00   45.8    87    4.3   351     5.0   961.8    0.00 
  61    4:50   0.00   45.9    86    4.3   347     5.6   961.9    0.00 
  61    5:00   0.00   45.7    86    5.2     2     5.8   961.9    0.00 
  61    5:10   0.00   45.9    85    5.7   336     7.0   961.9    0.00 
  61    5:20   0.00   46.1    85    5.8   331     7.5   961.9    0.00 
  61    5:30   0.00   46.1    85    6.0   342     7.0   962.0    0.00 
  61    5:40   0.00   46.0    85    6.5   352     7.5   962.0    0.00 
  61    5:50   0.00   45.9    85    6.1   354     6.9   962.0    0.00 
  61    6:00   0.00   45.9    85    5.4   329     5.8   962.2    0.00 
  61    6:10   0.00   45.9    86    4.5   306     5.3   962.2    0.00 
  61    6:20   0.00   46.0    85    4.4   341     5.3   962.2    0.00 
  61    6:30   0.00   46.1    84    5.2     2     5.8   962.2    0.00 
  61    6:40   0.00   46.3    82    4.7     8     5.9   962.2    0.00 
  61    6:50   0.00   46.0    83    2.3    33     3.9   962.2    0.00 
  61    7:00   0.01   45.9    82    2.0    34     2.6   962.2    0.00 
  61    7:10   0.09   46.3    82    1.7   287     3.6   962.2    0.00 
  61    7:20   0.14   46.8    84    3.5   243     4.7   962.2    0.00 
  61    7:30   0.18   46.7    86    4.7   237     6.2   962.3    0.00 
  61    7:40   0.21   47.2    86    5.3   220     6.9   962.5    0.00 
  61    7:50   0.25   47.7    86    4.8   211     7.2   962.5    0.00 
  61    8:00   0.28   48.3    86    5.3   203     7.6   962.6    0.00 
  61    8:10   0.31   48.9    84    5.3   198     7.2   962.7    0.00 
  61    8:20   0.35   49.5    82    4.4   187     7.3   962.7    0.00 
  61    8:30   0.39   50.1    80    4.2   198     7.2   962.8    0.00 
  61    8:40   0.43   51.4    79    3.8   170     7.3   962.8    0.00 
  61    8:50   0.47   52.0    78    4.6   170     9.0   963.0    0.00 
  61    9:00   0.54   52.9    76    4.2   166     8.8   963.1    0.00 
  61    9:10   0.59   54.1    74    4.1   159     9.9   963.2    0.00 
  61    9:20   0.42   54.3    74    4.6   149     8.7   963.2    0.00 
  61    9:30   0.33   54.0    73    3.8   164     9.5   963.2    0.00 
  61    9:40   0.15   52.6    76    3.6   138     9.3   963.3    0.00 
  61    9:50   0.10   51.8    79    2.9   108     8.0   963.2    0.00 
  61   10:00   0.10   51.1    82    2.3   119     6.0   963.3    0.00 
  61   10:10   0.11   51.3    82    2.4   103     4.8   963.4    0.01 
  61   10:20   0.08   51.1    85    1.4   136     3.7   963.4    0.01 
  61   10:30   0.08   50.6    88    2.5   141     6.9   963.4    0.01 
  61   10:40   0.08   49.6    91    3.9   142     7.4   963.5    0.00 
  61   10:50   0.04   48.0    92    6.4   171    10.1   963.4    0.01 
  61   11:00   0.06   46.7    91    4.6   144     7.2   963.4    0.00 
  61   11:10   0.07   46.7    86    4.8   143     9.2   963.3    0.00 
  61   11:20   0.05   46.8    83    2.9   186     7.8   963.3    0.06 
  61   11:30   0.08   46.2    86    6.1   189     8.6   963.3    0.04 
  61   11:40   0.08   45.9    88    5.8   167    10.4   963.2    0.01 

Return to Valley Peak, Santa Cruz Island Reserve graphs page.


Western Regional Climate Center,wrcc@dri.edu